createdAt,value
2022-08-22T00:00:33.189Z,982.12
2022-08-22T00:01:33.102Z,982.06
2022-08-22T00:02:33.095Z,982.10
2022-08-22T00:02:52.599Z,981.40
2022-08-22T00:02:57.905Z,982.09
2022-08-22T00:03:09.682Z,982.11
2022-08-22T00:03:32.259Z,982.08
2022-08-22T00:04:34.439Z,982.09
2022-08-22T00:05:32.969Z,982.10
2022-08-22T00:06:32.219Z,982.06
2022-08-22T00:07:32.219Z,982.11
2022-08-22T00:08:32.188Z,982.09
2022-08-22T00:09:32.198Z,982.08
2022-08-22T00:10:33.001Z,982.07
2022-08-22T00:11:32.179Z,982.07
2022-08-22T00:12:32.169Z,982.05
2022-08-22T00:13:32.976Z,982.08
2022-08-22T00:14:32.129Z,982.11
2022-08-22T00:15:43.551Z,982.11
2022-08-22T00:16:33.960Z,982.05
2022-08-22T00:17:32.120Z,982.06
2022-08-22T00:18:40.424Z,982.10
2022-08-22T00:19:32.085Z,982.12
2022-08-22T00:20:32.819Z,982.08
2022-08-22T00:21:32.111Z,982.11
2022-08-22T00:22:32.881Z,982.13
2022-08-22T00:23:32.058Z,982.10
2022-08-22T00:24:32.224Z,982.09
2022-08-22T00:25:32.239Z,982.08
2022-08-22T00:26:32.244Z,982.14
2022-08-22T00:27:32.008Z,982.08
2022-08-22T00:28:31.954Z,982.09
2022-08-22T00:29:31.962Z,982.11
2022-08-22T00:30:31.935Z,982.10
2022-08-22T00:31:31.949Z,982.10
2022-08-22T00:32:31.924Z,982.11
2022-08-22T00:33:31.926Z,982.14
2022-08-22T00:34:31.884Z,982.13
2022-08-22T00:35:31.892Z,982.14
2022-08-22T00:36:32.131Z,982.07
2022-08-22T00:37:31.886Z,982.09
2022-08-22T00:38:31.857Z,982.07
2022-08-22T00:39:32.236Z,982.12
2022-08-22T00:40:32.725Z,982.11
2022-08-22T00:41:31.850Z,982.11
2022-08-22T00:42:32.554Z,982.17
2022-08-22T00:43:32.654Z,982.10
2022-08-22T00:44:31.788Z,982.14
2022-08-22T00:45:31.793Z,982.12
2022-08-22T00:46:31.745Z,982.14
2022-08-22T00:47:31.755Z,982.11
2022-08-22T00:48:32.513Z,982.10
2022-08-22T00:49:31.748Z,982.09
2022-08-22T00:50:31.705Z,982.10
2022-08-22T00:51:32.660Z,982.12
2022-08-22T00:52:31.675Z,982.07
2022-08-22T00:53:31.685Z,982.15
2022-08-22T00:54:31.671Z,982.10
2022-08-22T00:55:34.836Z,982.11
2022-08-22T00:56:31.635Z,982.17
2022-08-22T00:57:31.645Z,982.16
2022-08-22T00:58:31.605Z,982.13
2022-08-22T00:59:31.606Z,982.16
2022-08-22T01:00:35.053Z,982.12
2022-08-22T01:01:32.542Z,982.15
2022-08-22T01:02:32.361Z,982.16
2022-08-22T01:03:32.076Z,982.15
2022-08-22T01:04:32.109Z,982.11
2022-08-22T01:05:31.555Z,982.16
2022-08-22T01:06:31.515Z,982.13
2022-08-22T01:07:37.853Z,982.10
2022-08-22T01:08:32.547Z,982.08
2022-08-22T01:09:31.485Z,982.05
2022-08-22T01:10:31.474Z,982.02
2022-08-22T01:11:32.266Z,982.06
2022-08-22T01:12:31.455Z,982.00
2022-08-22T01:13:31.444Z,981.96
2022-08-22T01:14:34.645Z,981.98
2022-08-22T01:15:31.427Z,981.97
2022-08-22T01:16:31.415Z,981.96
2022-08-22T01:17:31.957Z,981.96
2022-08-22T01:18:32.007Z,981.98
2022-08-22T01:19:31.856Z,982.01
2022-08-22T01:20:31.354Z,981.98
2022-08-22T01:21:32.150Z,981.97
2022-08-22T01:22:32.049Z,981.95
2022-08-22T01:23:32.142Z,981.97
2022-08-22T01:24:31.367Z,981.94
2022-08-22T01:25:31.308Z,981.92
2022-08-22T01:26:32.121Z,981.93
2022-08-22T01:27:31.295Z,981.94
2022-08-22T01:28:31.268Z,981.94
2022-08-22T01:29:31.256Z,981.91
2022-08-22T01:30:31.228Z,981.90
2022-08-22T01:31:31.227Z,981.89
2022-08-22T01:32:31.217Z,981.87
2022-08-22T01:33:31.238Z,981.91
2022-08-22T01:34:31.191Z,981.88
2022-08-22T01:35:31.184Z,981.91
2022-08-22T01:36:31.167Z,981.91
2022-08-22T01:37:31.436Z,981.92
2022-08-22T01:38:31.245Z,981.93
2022-08-22T01:39:31.147Z,981.90
2022-08-22T01:40:31.131Z,981.88
2022-08-22T01:41:31.546Z,981.88
2022-08-22T01:42:31.849Z,981.92
2022-08-22T01:43:58.616Z,981.90
2022-08-22T01:44:32.946Z,981.91
2022-08-22T01:45:31.084Z,981.88
2022-08-22T01:46:31.061Z,981.91
2022-08-22T01:47:31.057Z,981.87
2022-08-22T01:48:32.067Z,981.96
2022-08-22T01:49:31.760Z,981.91
2022-08-22T01:50:31.015Z,981.93
2022-08-22T01:51:30.999Z,981.97
2022-08-22T01:52:30.980Z,981.96
2022-08-22T01:53:30.988Z,981.94
2022-08-22T01:54:30.992Z,981.98
2022-08-22T01:55:31.189Z,981.97
2022-08-22T01:56:30.929Z,981.96
2022-08-22T01:57:31.567Z,981.99
2022-08-22T01:58:30.915Z,981.97
2022-08-22T01:59:33.996Z,981.94
2022-08-22T02:00:35.177Z,981.96
2022-08-22T02:01:30.886Z,981.98
2022-08-22T02:02:30.857Z,981.93
2022-08-22T02:03:31.624Z,981.96
2022-08-22T02:04:31.786Z,981.94
2022-08-22T02:05:30.886Z,981.96
2022-08-22T02:06:30.818Z,982.01
2022-08-22T02:07:32.275Z,981.98
2022-08-22T02:08:30.808Z,981.98
2022-08-22T02:09:30.916Z,981.96
2022-08-22T02:10:30.777Z,981.97
2022-08-22T02:11:30.779Z,981.95
2022-08-22T02:12:30.747Z,981.97
2022-08-22T02:13:30.749Z,981.99
2022-08-22T02:14:30.734Z,981.97
2022-08-22T02:15:30.727Z,981.98
2022-08-22T02:16:30.728Z,982.01
2022-08-22T02:17:30.709Z,981.99
2022-08-22T02:18:30.699Z,982.01
2022-08-22T02:19:30.677Z,981.96
2022-08-22T02:20:30.660Z,981.97
2022-08-22T02:21:30.656Z,981.97
2022-08-22T02:22:30.637Z,981.97
2022-08-22T02:23:31.499Z,981.99
2022-08-22T02:24:30.635Z,981.93
2022-08-22T02:25:30.840Z,981.95
2022-08-22T02:26:30.587Z,981.95
2022-08-22T02:27:31.629Z,981.95
2022-08-22T02:28:30.566Z,981.89
2022-08-22T02:29:31.045Z,981.87
2022-08-22T02:30:30.537Z,981.91
2022-08-22T02:31:30.538Z,981.89
2022-08-22T02:32:30.527Z,981.88
2022-08-22T02:33:30.527Z,981.88
2022-08-22T02:34:30.506Z,981.87
2022-08-22T02:35:30.497Z,981.85
2022-08-22T02:36:30.478Z,981.83
2022-08-22T02:37:30.483Z,981.84
2022-08-22T02:38:30.489Z,981.85
2022-08-22T02:39:30.697Z,981.85
2022-08-22T02:40:30.744Z,981.89
2022-08-22T02:41:30.913Z,981.86
2022-08-22T02:42:30.408Z,981.82
2022-08-22T02:43:30.531Z,981.83
2022-08-22T02:44:31.092Z,981.84
2022-08-22T02:45:31.176Z,981.86
2022-08-22T02:46:30.367Z,981.81
2022-08-22T02:47:30.368Z,981.80
2022-08-22T02:48:30.347Z,981.82
2022-08-22T02:49:30.378Z,981.81
2022-08-22T02:50:30.317Z,981.79
2022-08-22T02:51:30.395Z,981.80
2022-08-22T02:52:30.305Z,981.77
2022-08-22T02:53:30.297Z,981.76
2022-08-22T02:54:30.277Z,981.72
2022-08-22T02:55:30.279Z,981.75
2022-08-22T02:56:30.312Z,981.74
2022-08-22T02:57:30.258Z,981.70
2022-08-22T02:58:30.238Z,981.76
2022-08-22T02:59:30.228Z,981.74
2022-08-22T03:00:31.123Z,981.77
2022-08-22T03:01:30.234Z,981.74
2022-08-22T03:02:30.231Z,981.77
2022-08-22T03:03:30.185Z,981.79
2022-08-22T03:04:30.161Z,981.76
2022-08-22T03:05:30.187Z,981.74
2022-08-22T03:06:30.149Z,981.74
2022-08-22T03:07:30.402Z,981.73
2022-08-22T03:08:30.288Z,981.69
2022-08-22T03:09:30.117Z,981.72
2022-08-22T03:10:30.097Z,981.68
2022-08-22T03:11:30.107Z,981.71
2022-08-22T03:12:30.078Z,981.69
2022-08-22T03:13:30.225Z,981.73
2022-08-22T03:14:30.052Z,981.69
2022-08-22T03:15:30.056Z,981.68
2022-08-22T03:16:30.038Z,981.70
2022-08-22T03:17:30.037Z,981.72
2022-08-22T03:18:30.022Z,981.67
2022-08-22T03:19:30.005Z,981.70
2022-08-22T03:20:29.987Z,981.69
2022-08-22T03:21:29.998Z,981.70
2022-08-22T03:22:29.965Z,981.69
2022-08-22T03:23:29.968Z,981.65
2022-08-22T03:24:30.757Z,981.66
2022-08-22T03:25:30.664Z,981.63
2022-08-22T03:26:29.938Z,981.63
2022-08-22T03:27:33.204Z,981.64
2022-08-22T03:28:29.908Z,981.60
2022-08-22T03:29:29.904Z,981.63
2022-08-22T03:30:29.871Z,981.62
2022-08-22T03:31:29.868Z,981.58
2022-08-22T03:32:30.850Z,981.59
2022-08-22T03:33:29.905Z,981.60
2022-08-22T03:34:29.829Z,981.61
2022-08-22T03:35:29.827Z,981.57
2022-08-22T03:36:29.808Z,981.57
2022-08-22T03:37:29.808Z,981.62
2022-08-22T03:38:29.799Z,981.57
2022-08-22T03:39:29.794Z,981.58
2022-08-22T03:40:29.767Z,981.58
2022-08-22T03:41:29.758Z,981.55
2022-08-22T03:42:29.745Z,981.57
2022-08-22T03:43:29.745Z,981.53
2022-08-22T03:44:29.717Z,981.52
2022-08-22T03:45:30.045Z,981.54
2022-08-22T03:46:30.437Z,981.54
2022-08-22T03:47:29.710Z,981.54
2022-08-22T03:48:29.687Z,981.52
2022-08-22T03:49:29.678Z,981.53
2022-08-22T03:50:29.678Z,981.54
2022-08-22T03:51:29.663Z,981.58
2022-08-22T03:52:29.627Z,981.53
2022-08-22T03:53:29.637Z,981.56
2022-08-22T03:54:30.579Z,981.54
2022-08-22T03:55:29.608Z,981.54
2022-08-22T03:56:29.586Z,981.55
2022-08-22T03:57:29.588Z,981.54
2022-08-22T03:58:29.593Z,981.53
2022-08-22T03:59:29.557Z,981.55
2022-08-22T04:00:29.590Z,981.51
2022-08-22T04:01:29.548Z,981.53
2022-08-22T04:02:29.517Z,981.56
2022-08-22T04:03:30.520Z,981.56
2022-08-22T04:04:29.531Z,981.54
2022-08-22T04:05:29.550Z,981.56
2022-08-22T04:06:30.316Z,981.61
2022-08-22T04:07:32.087Z,981.55
2022-08-22T04:08:29.457Z,981.62
2022-08-22T04:09:29.459Z,981.61
2022-08-22T04:10:29.777Z,981.62
2022-08-22T04:11:29.437Z,981.68
2022-08-22T04:12:29.407Z,981.67
2022-08-22T04:13:29.404Z,981.67
2022-08-22T04:14:29.397Z,981.71
2022-08-22T04:15:29.374Z,981.67
2022-08-22T04:16:29.406Z,981.71
2022-08-22T04:17:29.357Z,981.66
2022-08-22T04:18:29.367Z,981.73
2022-08-22T04:19:29.339Z,981.66
2022-08-22T04:20:29.339Z,981.64
2022-08-22T04:21:29.308Z,981.67
2022-08-22T04:22:29.317Z,981.65
2022-08-22T04:23:29.296Z,981.66
2022-08-22T04:24:29.315Z,981.67
2022-08-22T04:25:29.273Z,981.65
2022-08-22T04:26:30.187Z,981.65
2022-08-22T04:27:29.269Z,981.65
2022-08-22T04:28:29.263Z,981.68
2022-08-22T04:29:29.225Z,981.64
2022-08-22T04:30:29.227Z,981.63
2022-08-22T04:31:29.238Z,981.64
2022-08-22T04:32:29.197Z,981.66
2022-08-22T04:33:29.187Z,981.69
2022-08-22T04:34:29.188Z,981.70
2022-08-22T04:35:29.162Z,981.70
2022-08-22T04:36:29.164Z,981.66
2022-08-22T04:37:29.147Z,981.68
2022-08-22T04:38:29.147Z,981.68
2022-08-22T04:39:29.148Z,981.71
2022-08-22T04:40:29.116Z,981.65
2022-08-22T04:41:29.087Z,981.68
2022-08-22T04:42:33.269Z,981.65
2022-08-22T04:43:29.066Z,981.66
2022-08-22T04:44:29.069Z,981.66
2022-08-22T04:45:29.047Z,981.67
2022-08-22T04:46:35.133Z,981.70
2022-08-22T04:47:30.337Z,981.66
2022-08-22T04:48:29.046Z,981.73
2022-08-22T04:49:29.069Z,981.69
2022-08-22T04:50:29.005Z,981.71
2022-08-22T04:51:28.998Z,981.74
2022-08-22T04:52:29.429Z,981.70
2022-08-22T04:53:28.956Z,981.69
2022-08-22T04:54:28.962Z,981.71
2022-08-22T04:55:28.950Z,981.65
2022-08-22T04:56:28.946Z,981.68
2022-08-22T04:57:28.927Z,981.63
2022-08-22T04:58:28.918Z,981.67
2022-08-22T04:59:28.907Z,981.64
2022-08-22T05:00:28.910Z,981.64
2022-08-22T05:01:28.916Z,981.64
2022-08-22T05:02:28.901Z,981.67
2022-08-22T05:03:28.847Z,981.64
2022-08-22T05:04:28.855Z,981.66
2022-08-22T05:05:28.852Z,981.64
2022-08-22T05:06:29.518Z,981.65
2022-08-22T05:07:35.805Z,981.63
2022-08-22T05:08:30.127Z,981.61
2022-08-22T05:09:28.776Z,981.60
2022-08-22T05:10:28.787Z,981.65
2022-08-22T05:11:28.777Z,981.60
2022-08-22T05:12:29.201Z,981.67
2022-08-22T05:13:28.736Z,981.59
2022-08-22T05:14:28.739Z,981.68
2022-08-22T05:15:28.715Z,981.68
2022-08-22T05:16:28.708Z,981.63
2022-08-22T05:17:28.705Z,981.65
2022-08-22T05:18:29.850Z,981.68
2022-08-22T05:19:32.086Z,981.63
2022-08-22T05:20:28.668Z,981.62
2022-08-22T05:21:28.654Z,981.63
2022-08-22T05:22:28.668Z,981.58
2022-08-22T05:23:28.647Z,981.57
2022-08-22T05:24:28.644Z,981.55
2022-08-22T05:25:28.617Z,981.60
2022-08-22T05:26:29.547Z,981.60
2022-08-22T05:27:29.448Z,981.60
2022-08-22T05:28:28.622Z,981.57
2022-08-22T05:29:28.890Z,981.59
2022-08-22T05:30:29.273Z,981.61
2022-08-22T05:31:29.158Z,981.57
2022-08-22T05:32:29.296Z,981.60
2022-08-22T05:33:28.546Z,981.54
2022-08-22T05:34:28.521Z,981.60
2022-08-22T05:35:28.507Z,981.61
2022-08-22T05:36:28.509Z,981.59
2022-08-22T05:37:29.266Z,981.60
2022-08-22T05:38:28.529Z,981.62
2022-08-22T05:39:28.464Z,981.61
2022-08-22T05:40:28.456Z,981.65
2022-08-22T05:41:28.427Z,981.64
2022-08-22T05:42:29.298Z,981.68
2022-08-22T05:43:29.212Z,981.66
2022-08-22T05:44:28.444Z,981.62
2022-08-22T05:45:28.412Z,981.65
2022-08-22T05:46:28.396Z,981.69
2022-08-22T05:47:28.368Z,981.73
2022-08-22T05:48:28.381Z,981.73
2022-08-22T05:49:28.353Z,981.72
2022-08-22T05:50:28.337Z,981.72
2022-08-22T05:51:28.317Z,981.70
2022-08-22T05:52:28.326Z,981.65
2022-08-22T05:53:28.286Z,981.69
2022-08-22T05:54:33.636Z,981.67
2022-08-22T05:55:29.284Z,981.65
2022-08-22T05:56:28.304Z,981.68
2022-08-22T05:57:28.297Z,981.71
2022-08-22T05:58:28.565Z,981.70
2022-08-22T05:59:29.028Z,981.70
2022-08-22T06:00:28.237Z,981.68
2022-08-22T06:01:28.237Z,981.68
2022-08-22T06:02:28.226Z,981.67
2022-08-22T06:03:28.237Z,981.67
2022-08-22T06:04:28.908Z,981.64
2022-08-22T06:05:28.878Z,981.67
2022-08-22T06:06:28.161Z,981.68
2022-08-22T06:07:28.352Z,981.69
2022-08-22T06:08:28.160Z,981.66
2022-08-22T06:09:35.371Z,981.69
2022-08-22T06:10:29.140Z,981.70
2022-08-22T06:11:33.727Z,981.72
2022-08-22T06:12:29.118Z,981.71
2022-08-22T06:13:28.896Z,981.72
2022-08-22T06:14:28.801Z,981.68
2022-08-22T06:15:28.932Z,981.68
2022-08-22T06:16:28.056Z,981.65
2022-08-22T06:17:28.030Z,981.70
2022-08-22T06:18:28.046Z,981.68
2022-08-22T06:19:28.820Z,981.67
2022-08-22T06:20:28.656Z,981.69
2022-08-22T06:21:32.534Z,981.70
2022-08-22T06:22:29.246Z,981.71
2022-08-22T06:23:27.940Z,981.73
2022-08-22T06:24:27.945Z,981.76
2022-08-22T06:25:28.754Z,981.67
2022-08-22T06:26:28.647Z,981.68
2022-08-22T06:27:31.403Z,981.68
2022-08-22T06:28:28.730Z,981.67
2022-08-22T06:29:27.889Z,981.61
2022-08-22T06:30:27.921Z,981.63
2022-08-22T06:31:27.878Z,981.64
2022-08-22T06:32:58.764Z,981.66
2022-08-22T06:33:28.846Z,981.59
2022-08-22T06:34:27.830Z,981.59
2022-08-22T06:35:28.557Z,981.62
2022-08-22T06:36:27.823Z,981.61
2022-08-22T06:37:28.620Z,981.62
2022-08-22T06:38:28.540Z,981.63
2022-08-22T06:39:28.327Z,981.62
2022-08-22T06:40:28.350Z,981.58
2022-08-22T06:41:28.347Z,981.63
2022-08-22T06:42:28.356Z,981.61
2022-08-22T06:43:28.567Z,981.63
2022-08-22T06:44:28.457Z,981.62
2022-08-22T06:45:28.617Z,981.63
2022-08-22T06:46:28.523Z,981.62
2022-08-22T06:47:28.442Z,981.61
2022-08-22T06:48:27.727Z,981.62
2022-08-22T06:49:28.498Z,981.62
2022-08-22T06:50:28.401Z,981.70
2022-08-22T06:51:28.560Z,981.67
2022-08-22T06:52:28.458Z,981.69
2022-08-22T06:53:27.638Z,981.71
2022-08-22T06:54:32.504Z,981.74
2022-08-22T06:55:28.657Z,981.69
2022-08-22T06:56:28.329Z,981.71
2022-08-22T06:57:27.569Z,981.70
2022-08-22T06:58:30.988Z,981.72
2022-08-22T06:59:29.326Z,981.69
2022-08-22T07:00:28.290Z,981.73
2022-08-22T07:01:27.599Z,981.72
2022-08-22T07:02:28.268Z,981.69
2022-08-22T07:03:28.427Z,981.68
2022-08-22T07:04:28.328Z,981.72
2022-08-22T07:05:27.520Z,981.75
2022-08-22T07:06:28.213Z,981.70
2022-08-22T07:07:28.303Z,981.70
2022-08-22T07:08:27.456Z,981.73
2022-08-22T07:09:28.358Z,981.73
2022-08-22T07:10:28.273Z,981.70
2022-08-22T07:11:28.182Z,981.68
2022-08-22T07:12:28.139Z,981.66
2022-08-22T07:13:27.378Z,981.69
2022-08-22T07:14:27.437Z,981.67
2022-08-22T07:15:28.299Z,981.73
2022-08-22T07:16:27.358Z,981.71
2022-08-22T07:17:28.108Z,981.72
2022-08-22T07:18:28.080Z,981.70
2022-08-22T07:19:27.311Z,981.69
2022-08-22T07:20:27.310Z,981.72
2022-08-22T07:21:28.329Z,981.77
2022-08-22T07:22:28.139Z,981.76
2022-08-22T07:23:27.390Z,981.72
2022-08-22T07:24:28.017Z,981.76
2022-08-22T07:25:27.399Z,981.75
2022-08-22T07:26:27.238Z,981.72
2022-08-22T07:27:27.243Z,981.73
2022-08-22T07:28:31.812Z,981.69
2022-08-22T07:29:28.999Z,981.67
2022-08-22T07:30:28.597Z,981.70
2022-08-22T07:31:27.169Z,981.72
2022-08-22T07:32:27.941Z,981.69
2022-08-22T07:33:28.122Z,981.66
2022-08-22T07:34:27.170Z,981.66
2022-08-22T07:35:27.139Z,981.68
2022-08-22T07:36:31.621Z,981.62
2022-08-22T07:37:27.988Z,981.63
2022-08-22T07:38:27.137Z,981.61
2022-08-22T07:39:27.885Z,981.62
2022-08-22T07:40:27.102Z,981.60
2022-08-22T07:41:27.851Z,981.61
2022-08-22T07:42:30.293Z,981.59
2022-08-22T07:43:27.920Z,981.63
2022-08-22T07:44:27.828Z,981.64
2022-08-22T07:45:27.041Z,981.60
2022-08-22T07:46:27.888Z,981.62
2022-08-22T07:47:26.992Z,981.66
2022-08-22T07:48:27.010Z,981.67
2022-08-22T07:49:26.971Z,981.68
2022-08-22T07:50:27.760Z,981.68
2022-08-22T07:51:27.661Z,981.64
2022-08-22T07:52:26.959Z,981.71
2022-08-22T07:53:26.930Z,981.68
2022-08-22T07:54:27.348Z,981.70
2022-08-22T07:55:27.792Z,981.73
2022-08-22T07:56:27.693Z,981.74
2022-08-22T07:57:27.602Z,981.72
2022-08-22T07:58:27.572Z,981.69
2022-08-22T07:59:26.859Z,981.69
2022-08-22T08:00:27.562Z,981.71
2022-08-22T08:01:27.766Z,981.74
2022-08-22T08:02:27.621Z,981.71
2022-08-22T08:03:27.544Z,981.69
2022-08-22T08:04:27.514Z,981.71
2022-08-22T08:05:27.599Z,981.74
2022-08-22T08:06:26.810Z,981.72
2022-08-22T08:07:26.771Z,981.72
2022-08-22T08:08:27.574Z,981.76
2022-08-22T08:09:27.476Z,981.76
2022-08-22T08:10:27.625Z,981.79
2022-08-22T08:11:26.744Z,981.74
2022-08-22T08:12:27.432Z,981.73
2022-08-22T08:13:27.593Z,981.70
2022-08-22T08:14:27.501Z,981.72
2022-08-22T08:15:27.407Z,981.70
2022-08-22T08:16:27.582Z,981.71
2022-08-22T08:17:30.130Z,981.69
2022-08-22T08:18:28.400Z,981.72
2022-08-22T08:19:26.644Z,981.74
2022-08-22T08:20:27.436Z,981.72
2022-08-22T08:21:26.615Z,981.72
2022-08-22T08:22:26.635Z,981.72
2022-08-22T08:23:27.404Z,981.73
2022-08-22T08:24:27.319Z,981.73
2022-08-22T08:25:26.564Z,981.72
2022-08-22T08:26:27.386Z,981.70
2022-08-22T08:27:26.554Z,981.68
2022-08-22T08:28:27.445Z,981.66
2022-08-22T08:29:27.352Z,981.70
2022-08-22T08:30:27.244Z,981.69
2022-08-22T08:31:26.562Z,981.72
2022-08-22T08:32:26.495Z,981.72
2022-08-22T08:33:26.919Z,981.70
2022-08-22T08:34:26.473Z,981.68
2022-08-22T08:35:27.274Z,981.69
2022-08-22T08:36:27.174Z,981.66
2022-08-22T08:37:27.146Z,981.64
2022-08-22T08:38:27.245Z,981.64
2022-08-22T08:39:28.561Z,981.63
2022-08-22T08:40:28.326Z,981.63
2022-08-22T08:41:26.906Z,981.64
2022-08-22T08:42:26.803Z,981.63
2022-08-22T08:43:27.115Z,981.58
2022-08-22T08:44:26.345Z,981.64
2022-08-22T08:45:28.971Z,981.62
2022-08-22T08:46:27.253Z,981.59
2022-08-22T08:47:27.181Z,981.55
2022-08-22T08:48:26.359Z,981.50
2022-08-22T08:49:26.306Z,981.57
2022-08-22T08:50:26.277Z,981.55
2022-08-22T08:51:27.020Z,981.51
2022-08-22T08:52:27.196Z,981.50
2022-08-22T08:53:27.100Z,981.48
2022-08-22T08:54:26.466Z,981.53
2022-08-22T08:55:26.956Z,981.51
2022-08-22T08:56:26.207Z,981.50
2022-08-22T08:57:26.204Z,981.49
2022-08-22T08:58:26.187Z,981.45
2022-08-22T08:59:27.038Z,981.46
2022-08-22T09:00:30.410Z,981.42
2022-08-22T09:01:27.715Z,981.42
2022-08-22T09:02:26.138Z,981.39
2022-08-22T09:03:30.946Z,981.37
2022-08-22T09:04:26.235Z,981.34
2022-08-22T09:05:26.139Z,981.29
2022-08-22T09:06:26.868Z,981.23
2022-08-22T09:07:27.049Z,981.26
2022-08-22T09:08:27.718Z,981.21
2022-08-22T09:09:26.825Z,981.25
2022-08-22T09:10:29.353Z,981.24
2022-08-22T09:11:28.550Z,981.23
2022-08-22T09:12:26.798Z,981.25
2022-08-22T09:13:26.028Z,981.25
2022-08-22T09:14:26.970Z,981.26
2022-08-22T09:15:26.758Z,981.22
2022-08-22T09:16:25.999Z,981.21
2022-08-22T09:17:26.853Z,981.17
2022-08-22T09:18:25.962Z,981.16
2022-08-22T09:19:25.950Z,981.13
2022-08-22T09:20:25.929Z,981.14
2022-08-22T09:21:31.476Z,981.14
2022-08-22T09:22:27.690Z,981.12
2022-08-22T09:23:27.599Z,981.07
2022-08-22T09:24:25.960Z,981.11
2022-08-22T09:25:27.197Z,981.03
2022-08-22T09:26:27.574Z,981.06
2022-08-22T09:27:25.917Z,981.05
2022-08-22T09:28:28.320Z,981.08
2022-08-22T09:29:29.059Z,981.12
2022-08-22T09:30:28.584Z,981.09
2022-08-22T09:31:44.744Z,981.05
2022-08-22T09:32:27.691Z,981.02
2022-08-22T09:33:28.262Z,981.01
2022-08-22T09:34:25.933Z,981.01
2022-08-22T09:35:25.938Z,981.04
2022-08-22T09:36:25.769Z,981.00
2022-08-22T09:37:25.772Z,981.09
2022-08-22T09:38:25.740Z,981.01
2022-08-22T09:39:25.754Z,981.06
2022-08-22T09:41:25.771Z,980.94
2022-08-22T09:42:25.682Z,980.94
2022-08-22T09:43:25.781Z,980.93
2022-08-22T09:44:26.539Z,980.93
2022-08-22T09:45:25.793Z,980.89
2022-08-22T09:46:31.593Z,980.90
2022-08-22T09:47:26.833Z,980.88
2022-08-22T09:48:26.657Z,980.82
2022-08-22T09:49:25.643Z,980.82
2022-08-22T09:50:29.444Z,980.86
2022-08-22T09:51:32.131Z,980.83
2022-08-22T09:52:32.009Z,980.83
2022-08-22T09:53:27.464Z,980.84
2022-08-22T09:54:31.501Z,980.81
2022-08-22T09:55:35.299Z,980.87
2022-08-22T09:56:26.553Z,980.83
2022-08-22T09:57:25.561Z,980.80
2022-08-22T09:58:25.519Z,980.85
2022-08-22T09:59:25.513Z,980.84
2022-08-22T10:00:25.514Z,980.84
2022-08-22T10:01:26.515Z,980.81
2022-08-22T10:02:26.724Z,980.79
2022-08-22T10:03:25.474Z,980.81
2022-08-22T10:04:25.447Z,980.79
2022-08-22T10:05:41.158Z,980.84
2022-08-22T10:06:26.452Z,980.81
2022-08-22T10:07:25.435Z,980.78
2022-08-22T10:08:26.195Z,980.80
2022-08-22T10:09:31.475Z,980.82
2022-08-22T10:10:26.374Z,980.82
2022-08-22T10:11:25.375Z,980.82
2022-08-22T10:12:25.465Z,980.79
2022-08-22T10:13:25.466Z,980.79
2022-08-22T10:14:26.026Z,980.78
2022-08-22T10:15:25.386Z,980.79
2022-08-22T10:16:25.305Z,980.80
2022-08-22T10:17:25.306Z,980.83
2022-08-22T10:18:26.055Z,980.82
2022-08-22T10:19:25.312Z,980.84
2022-08-22T10:20:25.275Z,980.84
2022-08-22T10:21:25.272Z,980.82
2022-08-22T10:22:30.180Z,980.77
2022-08-22T10:23:26.257Z,980.76
2022-08-22T10:24:25.994Z,980.73
2022-08-22T10:25:25.237Z,980.76
2022-08-22T10:26:25.877Z,980.68
2022-08-22T10:27:25.196Z,980.66
2022-08-22T10:28:25.177Z,980.65
2022-08-22T10:29:25.177Z,980.59
2022-08-22T10:30:25.148Z,980.60
2022-08-22T10:31:25.167Z,980.59
2022-08-22T10:32:26.925Z,980.60
2022-08-22T10:33:25.140Z,980.60
2022-08-22T10:34:25.829Z,980.61
2022-08-22T10:35:25.626Z,980.61
2022-08-22T10:36:26.066Z,980.63
2022-08-22T10:37:25.091Z,980.60
2022-08-22T10:38:25.354Z,980.59
2022-08-22T10:39:25.059Z,980.58
2022-08-22T10:40:25.158Z,980.55
2022-08-22T10:41:25.049Z,980.60
2022-08-22T10:42:25.049Z,980.52
2022-08-22T10:43:28.875Z,980.50
2022-08-22T10:44:24.998Z,980.54
2022-08-22T10:45:36.759Z,980.55
2022-08-22T10:46:25.972Z,980.59
2022-08-22T10:47:24.983Z,980.53
2022-08-22T10:48:24.950Z,980.58
2022-08-22T10:49:29.104Z,980.59
2022-08-22T10:50:30.959Z,980.60
2022-08-22T10:51:25.930Z,980.59
2022-08-22T10:52:28.972Z,980.61
2022-08-22T10:53:28.286Z,980.63
2022-08-22T10:54:25.021Z,980.63
2022-08-22T10:55:24.893Z,980.60
2022-08-22T10:56:24.860Z,980.61
2022-08-22T10:57:24.863Z,980.57
2022-08-22T10:58:24.852Z,980.60
2022-08-22T10:59:24.840Z,980.54
2022-08-22T11:00:25.580Z,980.52
2022-08-22T11:01:41.561Z,980.55
2022-08-22T11:02:25.791Z,980.55
2022-08-22T11:03:25.050Z,980.48
2022-08-22T11:04:28.034Z,980.58
2022-08-22T11:05:24.775Z,980.62
2022-08-22T11:06:24.755Z,980.52
2022-08-22T11:07:24.816Z,980.52
2022-08-22T11:08:24.732Z,980.57
2022-08-22T11:09:24.733Z,980.53
2022-08-22T11:10:24.925Z,980.58
2022-08-22T11:11:24.703Z,980.55
2022-08-22T11:12:28.243Z,980.51
2022-08-22T11:13:25.695Z,980.57
2022-08-22T11:14:25.583Z,980.60
2022-08-22T11:15:34.677Z,980.59
2022-08-22T11:16:25.658Z,980.57
2022-08-22T11:17:30.958Z,980.50
2022-08-22T11:18:25.714Z,980.57
2022-08-22T11:19:24.994Z,980.53
2022-08-22T11:20:24.599Z,980.49
2022-08-22T11:21:24.605Z,980.52
2022-08-22T11:22:24.573Z,980.49
2022-08-22T11:23:25.226Z,980.43
2022-08-22T11:24:35.737Z,980.43
2022-08-22T11:25:35.719Z,980.40
2022-08-22T11:26:30.087Z,980.43
2022-08-22T11:27:31.703Z,980.41
2022-08-22T11:28:25.512Z,980.39
2022-08-22T11:29:24.516Z,980.39
2022-08-22T11:30:25.876Z,980.39
2022-08-22T11:31:24.502Z,980.40
2022-08-22T11:32:24.466Z,980.40
2022-08-22T11:33:32.482Z,980.38
2022-08-22T11:34:25.633Z,980.39
2022-08-22T11:35:24.456Z,980.39
2022-08-22T11:36:27.022Z,980.42
2022-08-22T11:37:42.245Z,980.40
2022-08-22T11:38:32.397Z,980.41
2022-08-22T11:39:25.424Z,980.42
2022-08-22T11:40:24.450Z,980.44
2022-08-22T11:41:24.394Z,980.36
2022-08-22T11:42:24.358Z,980.38
2022-08-22T11:43:25.367Z,980.41
2022-08-22T11:44:25.614Z,980.35
2022-08-22T11:45:24.350Z,980.41
2022-08-22T11:46:24.331Z,980.48
2022-08-22T11:47:27.319Z,980.44
2022-08-22T11:48:24.289Z,980.47
2022-08-22T11:49:25.688Z,980.43
2022-08-22T11:50:24.270Z,980.35
2022-08-22T11:51:24.956Z,980.32
2022-08-22T11:52:24.251Z,980.29
2022-08-22T11:53:24.250Z,980.30
2022-08-22T11:54:31.262Z,980.36
2022-08-22T11:55:27.550Z,980.27
2022-08-22T11:56:25.975Z,980.40
2022-08-22T11:57:24.274Z,980.39
2022-08-22T11:58:28.719Z,980.18
2022-08-22T11:59:24.197Z,980.22
2022-08-22T12:00:24.162Z,980.21
2022-08-22T12:01:24.182Z,980.21
2022-08-22T12:02:24.292Z,980.22
2022-08-22T12:03:24.132Z,980.16
2022-08-22T12:04:24.111Z,980.17
2022-08-22T12:05:24.708Z,980.21
2022-08-22T12:06:24.133Z,980.22
2022-08-22T12:07:24.843Z,980.20
2022-08-22T12:08:24.132Z,980.19
2022-08-22T12:09:24.079Z,980.21
2022-08-22T12:10:24.053Z,980.23
2022-08-22T12:11:24.125Z,980.18
2022-08-22T12:12:24.121Z,980.18
2022-08-22T12:13:34.976Z,980.17
2022-08-22T12:14:27.102Z,980.19
2022-08-22T12:15:24.841Z,980.15
2022-08-22T12:16:24.754Z,980.14
2022-08-22T12:17:50.937Z,980.16
2022-08-22T12:18:25.157Z,980.16
2022-08-22T12:19:23.993Z,980.15
2022-08-22T12:20:23.934Z,980.20
2022-08-22T12:21:23.952Z,980.16
2022-08-22T12:22:23.923Z,980.14
2022-08-22T12:23:30.044Z,980.12
2022-08-22T12:24:25.120Z,980.12
2022-08-22T12:25:23.902Z,980.12
2022-08-22T12:26:23.874Z,980.04